aviador You're here:

PAIK Decoded Metar

in _UNIDENTIFIED
Report Time2017-08-24 00:56:00
UTC Time2017-08-24 01:07:11
Flight Rules vfr VFR
Wind210° at 07 kt
W.Decomp.*RWY 24: 4.7 kt HW 5.2 kt LCW
W.Rank210° ranks 5
Current wind is above 210° avg. (5.8)
Visibility9999 m
Phenomena:N/A
Clouds:Broken 035 Hf
Expected CloudBase > 2,000 ft AGL from Temp-Dew spread
Ceiling3,500 ft
Temp11°C (ISA -4)
Dew Point06°C (72% RH)
AAT7.6°C
QNH1004 hPa
Density Alt164 ft
Elevation167 ft
Report Wrong Elevation
Raw Report
PAIK 240056Z AUTO 21007KT 10SM BKN035 11/06 A2964 RMK AO2 SLP039
T01060056=

Extra information for PAIK:More info

Metar Taf Metar & Taf Last 4 Metars F.Rules Stats Wind Profile Meteogram Temp Stats Metar ALERT Operation Metar Decoded Social comments